createdAt,value
2022-10-31T00:01:26.753Z,95183.31
2022-10-31T00:03:57.269Z,95179.94
2022-10-31T00:06:26.176Z,95157.00
2022-10-31T00:08:56.482Z,95133.53
2022-10-31T00:11:25.148Z,95094.44
2022-10-31T00:13:52.674Z,95072.25
2022-10-31T00:16:25.126Z,95116.06
2022-10-31T00:18:53.489Z,95145.88
2022-10-31T00:21:21.095Z,95157.47
2022-10-31T00:23:47.856Z,95121.91
2022-10-31T00:26:15.130Z,95159.19
2022-10-31T00:28:42.014Z,95167.13
2022-10-31T00:31:11.742Z,95130.31
2022-10-31T00:33:41.597Z,95138.25
2022-10-31T00:36:13.823Z,95078.06
2022-10-31T00:38:43.907Z,95134.81
2022-10-31T00:41:17.788Z,95115.34
2022-10-31T00:43:44.864Z,95136.44
2022-10-31T00:46:13.633Z,95117.09
2022-10-31T00:48:42.139Z,95135.09
2022-10-31T00:51:10.297Z,95161.41
2022-10-31T00:53:37.178Z,95092.72
2022-10-31T00:56:04.660Z,95107.47
2022-10-31T00:58:31.574Z,95103.25
2022-10-31T01:00:58.544Z,95084.63
2022-10-31T01:03:30.733Z,95125.63
2022-10-31T01:05:59.292Z,95131.34
2022-10-31T01:08:26.845Z,95160.25
2022-10-31T01:11:16.061Z,95223.16
2022-10-31T01:13:43.492Z,95243.19
2022-10-31T01:16:13.656Z,95235.09
2022-10-31T01:18:42.622Z,95201.03
2022-10-31T01:21:12.264Z,95187.69
2022-10-31T01:23:40.091Z,95191.47
2022-10-31T01:26:10.820Z,95201.91
2022-10-31T01:28:45.828Z,95217.84
2022-10-31T01:31:12.717Z,95209.16
2022-10-31T01:33:42.034Z,95197.06
2022-10-31T01:36:24.281Z,95181.03
2022-10-31T01:38:55.892Z,95193.91
2022-10-31T01:41:26.533Z,95228.91
2022-10-31T01:43:59.428Z,95224.09
2022-10-31T01:46:35.740Z,95226.00
2022-10-31T01:49:07.308Z,95225.59
2022-10-31T01:51:39.929Z,95226.44
2022-10-31T01:54:12.449Z,95222.88
2022-10-31T01:56:42.371Z,95215.63
2022-10-31T01:59:16.117Z,95229.63
2022-10-31T02:01:44.011Z,95212.72
2022-10-31T02:04:11.386Z,95198.56
2022-10-31T02:07:03.551Z,95212.00
2022-10-31T02:09:32.214Z,95197.84
2022-10-31T02:12:00.448Z,95212.63
2022-10-31T02:14:30.108Z,95205.66
2022-10-31T02:16:58.241Z,95196.53
2022-10-31T02:19:52.522Z,95205.66
2022-10-31T02:22:37.501Z,95227.25
2022-10-31T02:25:19.360Z,95222.81
2022-10-31T02:28:01.372Z,95219.59
2022-10-31T02:30:46.078Z,95191.19
2022-10-31T02:33:40.283Z,95189.63
2022-10-31T02:36:29.880Z,95184.47
2022-10-31T02:39:23.205Z,95167.34
2022-10-31T02:42:08.856Z,95195.97
2022-10-31T02:44:46.574Z,95200.28
2022-10-31T02:47:17.663Z,95183.81
2022-10-31T02:50:05.927Z,95178.78
2022-10-31T02:52:34.955Z,95196.34
2022-10-31T02:55:14.457Z,95203.22
2022-10-31T02:57:43.601Z,95210.63
2022-10-31T03:00:11.778Z,95204.19
2022-10-31T03:03:00.548Z,95194.19
2022-10-31T03:05:39.061Z,95198.69
2022-10-31T03:08:32.881Z,95176.06
2022-10-31T03:11:05.433Z,95174.22
2022-10-31T03:13:43.179Z,95184.06
2022-10-31T03:16:19.495Z,95196.03
2022-10-31T03:19:10.584Z,95141.94
2022-10-31T03:21:47.779Z,95131.03
2022-10-31T03:24:17.077Z,95193.25
2022-10-31T03:26:49.116Z,95182.16
2022-10-31T03:29:19.006Z,95182.28
2022-10-31T03:31:52.988Z,95173.38
2022-10-31T03:34:22.185Z,95186.03
2022-10-31T03:36:53.085Z,95204.50
2022-10-31T03:39:23.324Z,95211.50
2022-10-31T03:41:58.368Z,95202.59
2022-10-31T03:44:30.564Z,95192.94
2022-10-31T03:47:01.645Z,95182.59
2022-10-31T03:49:30.123Z,95083.88
2022-10-31T03:52:17.154Z,95131.31
2022-10-31T03:54:47.738Z,95154.06
2022-10-31T03:57:32.639Z,95163.88
2022-10-31T04:00:07.172Z,95180.34
2022-10-31T04:02:54.933Z,95192.13
2022-10-31T04:05:22.548Z,95198.06
2022-10-31T04:07:56.108Z,95204.47
2022-10-31T04:10:28.658Z,95182.00
2022-10-31T04:13:04.731Z,95184.78
2022-10-31T04:15:41.021Z,95193.31
2022-10-31T04:18:07.959Z,95183.22
2022-10-31T04:20:42.772Z,95158.28
2022-10-31T04:23:30.010Z,95152.41
2022-10-31T04:25:57.770Z,95157.06
2022-10-31T04:28:24.850Z,95157.34
2022-10-31T04:30:52.342Z,95181.53
2022-10-31T04:33:19.650Z,95186.38
2022-10-31T04:35:47.944Z,95181.88
2022-10-31T04:38:14.732Z,95185.44
2022-10-31T04:40:44.016Z,95153.66
2022-10-31T04:43:16.594Z,95156.44
2022-10-31T04:45:45.215Z,95164.88
2022-10-31T04:48:14.128Z,95179.91
2022-10-31T04:50:43.826Z,95175.84
2022-10-31T04:53:10.600Z,95189.25
2022-10-31T04:55:50.749Z,95174.53
2022-10-31T04:58:20.737Z,95185.44
2022-10-31T05:00:48.674Z,95192.44
2022-10-31T05:03:15.425Z,95179.97
2022-10-31T05:05:43.138Z,95194.06
2022-10-31T05:08:09.813Z,95191.16
2022-10-31T05:10:37.585Z,95182.47
2022-10-31T05:13:05.622Z,95151.97
2022-10-31T05:16:11.355Z,95174.44
2022-10-31T05:19:07.494Z,95164.38
2022-10-31T05:21:52.491Z,95175.06
2022-10-31T05:24:22.737Z,95142.94
2022-10-31T05:26:50.428Z,95141.47
2022-10-31T05:29:17.839Z,95135.84
2022-10-31T05:31:44.948Z,95160.75
2022-10-31T05:34:24.975Z,95174.13
2022-10-31T05:37:20.929Z,95183.63
2022-10-31T05:39:47.648Z,95182.38
2022-10-31T05:42:16.816Z,95196.63
2022-10-31T05:44:45.184Z,95161.78
2022-10-31T05:47:23.949Z,95179.47
2022-10-31T05:49:56.749Z,95171.13
2022-10-31T05:52:44.854Z,95189.16
2022-10-31T05:55:34.639Z,95178.53
2022-10-31T05:58:14.579Z,95167.28
2022-10-31T06:00:49.192Z,95183.69
2022-10-31T06:03:16.323Z,95183.28
2022-10-31T06:05:50.793Z,95162.56
2022-10-31T06:08:22.243Z,95159.47
2022-10-31T06:10:49.842Z,95187.44
2022-10-31T06:13:22.507Z,95194.97
2022-10-31T06:16:03.616Z,95180.78
2022-10-31T06:18:36.036Z,95183.31
2022-10-31T06:21:02.752Z,95181.47
2022-10-31T06:23:30.122Z,95162.78
2022-10-31T06:26:16.769Z,95131.41
2022-10-31T06:28:44.072Z,95172.56
2022-10-31T06:31:22.509Z,95181.44
2022-10-31T06:33:49.241Z,95183.59
2022-10-31T06:36:16.100Z,95171.09
2022-10-31T06:38:44.008Z,95188.22
2022-10-31T06:41:11.632Z,95150.41
2022-10-31T06:43:43.762Z,95169.69
2022-10-31T06:46:30.769Z,95174.22
2022-10-31T06:49:35.316Z,95176.03
2022-10-31T06:52:06.160Z,95188.91
2022-10-31T06:54:32.892Z,95190.41
2022-10-31T06:57:00.715Z,95181.25
2022-10-31T06:59:29.168Z,95175.91
2022-10-31T07:02:01.932Z,95180.59
2022-10-31T07:04:30.261Z,95185.16
2022-10-31T07:06:57.397Z,95180.78
2022-10-31T07:09:24.238Z,95189.34
2022-10-31T07:11:53.205Z,95190.22
2022-10-31T07:14:20.093Z,95179.75
2022-10-31T07:16:51.998Z,95197.78
2022-10-31T07:19:24.385Z,95226.66
2022-10-31T07:21:51.107Z,95264.75
2022-10-31T07:24:17.910Z,95213.31
2022-10-31T07:26:48.554Z,95261.59
2022-10-31T07:29:15.901Z,95273.41
2022-10-31T07:31:42.859Z,95251.66
2022-10-31T07:34:15.885Z,95260.09
2022-10-31T07:37:01.182Z,95245.66
2022-10-31T07:39:27.970Z,95257.66
2022-10-31T07:41:54.694Z,95257.53
2022-10-31T07:44:21.484Z,95259.25
2022-10-31T07:47:06.808Z,95247.94
2022-10-31T07:49:52.150Z,95278.59
2022-10-31T07:52:37.563Z,95279.22
2022-10-31T07:55:28.026Z,95274.22
2022-10-31T07:58:03.758Z,95285.16
2022-10-31T08:00:33.040Z,95271.78
2022-10-31T08:03:08.559Z,95259.75
2022-10-31T08:05:53.822Z,95261.38
2022-10-31T08:08:36.068Z,95246.22
2022-10-31T08:11:05.554Z,95257.06
2022-10-31T08:13:32.511Z,95248.53
2022-10-31T08:16:04.518Z,95246.84
2022-10-31T08:18:34.261Z,95214.47
2022-10-31T08:21:01.466Z,95182.72
2022-10-31T08:23:28.165Z,95178.13
2022-10-31T08:25:58.313Z,95190.22
2022-10-31T08:28:25.060Z,95242.22
2022-10-31T08:30:53.997Z,95225.09
2022-10-31T08:33:39.424Z,95201.97
2022-10-31T08:36:26.073Z,95201.09
2022-10-31T08:39:05.457Z,95190.44
2022-10-31T08:41:32.577Z,95223.28
2022-10-31T08:44:02.220Z,95214.31
2022-10-31T08:46:30.470Z,95199.34
2022-10-31T08:48:57.341Z,95244.97
2022-10-31T08:51:24.187Z,95243.97
2022-10-31T08:53:53.974Z,95245.31
2022-10-31T08:56:35.752Z,95223.38
2022-10-31T08:59:06.531Z,95219.41
2022-10-31T09:01:56.406Z,95214.50
2022-10-31T09:04:24.094Z,95217.84
2022-10-31T09:07:19.639Z,95193.03
2022-10-31T09:09:38.631Z,95210.75
2022-10-31T09:12:05.595Z,95215.94
2022-10-31T09:14:51.128Z,95222.41
2022-10-31T09:17:31.028Z,95219.69
2022-10-31T09:20:17.530Z,95203.63
2022-10-31T09:22:46.363Z,95161.53
2022-10-31T09:25:13.665Z,95192.09
2022-10-31T09:27:43.600Z,95172.94
2022-10-31T09:30:12.264Z,95192.31
2022-10-31T09:32:40.073Z,95147.75
2022-10-31T09:35:07.313Z,95159.72
2022-10-31T09:37:34.112Z,95143.78
2022-10-31T09:40:02.516Z,95128.03
2022-10-31T09:42:48.261Z,95131.41
2022-10-31T09:45:33.616Z,95156.84
2022-10-31T09:48:19.859Z,95150.56
2022-10-31T09:51:18.184Z,95120.22
2022-10-31T09:54:01.398Z,95116.44
2022-10-31T09:56:31.000Z,95133.09
2022-10-31T09:59:03.665Z,95134.06
2022-10-31T10:01:41.314Z,95110.88
2022-10-31T10:04:33.444Z,95116.00
2022-10-31T10:07:40.516Z,95116.38
2022-10-31T10:10:52.870Z,95106.84
2022-10-31T10:13:48.456Z,95103.47
2022-10-31T10:16:27.252Z,95104.72
2022-10-31T10:18:59.600Z,95077.06
2022-10-31T10:21:46.132Z,95087.03
2022-10-31T10:24:26.817Z,95084.34
2022-10-31T10:27:09.990Z,95079.81
2022-10-31T10:29:48.617Z,95082.88
2022-10-31T10:32:25.465Z,95073.81
2022-10-31T10:35:01.315Z,95086.28
2022-10-31T10:37:36.510Z,95077.03
2022-10-31T10:40:27.466Z,95074.69
2022-10-31T10:43:24.889Z,95053.56
2022-10-31T10:46:41.413Z,95080.28
2022-10-31T10:49:18.469Z,95074.66
2022-10-31T10:52:19.442Z,95081.31
2022-10-31T10:55:15.834Z,95065.13
2022-10-31T10:58:03.702Z,95078.66
2022-10-31T11:00:50.737Z,95073.25
2022-10-31T11:03:19.866Z,95070.47
2022-10-31T11:05:59.818Z,95051.09
2022-10-31T11:08:34.850Z,95053.34
2022-10-31T11:11:04.952Z,95042.44
2022-10-31T11:13:34.052Z,95029.78
2022-10-31T11:16:08.517Z,95045.19
2022-10-31T11:18:39.083Z,95032.69
2022-10-31T11:21:06.915Z,95031.28
2022-10-31T11:23:34.603Z,95037.97
2022-10-31T11:26:04.817Z,95016.22
2022-10-31T11:28:35.994Z,95026.97
2022-10-31T11:31:13.495Z,95021.97
2022-10-31T11:33:50.419Z,95013.22
2022-10-31T11:36:17.444Z,95039.56
2022-10-31T11:38:45.047Z,95019.41
2022-10-31T11:41:19.437Z,95028.47
2022-10-31T11:44:12.977Z,95028.06
2022-10-31T11:46:43.794Z,95042.94
2022-10-31T11:49:20.912Z,95035.84
2022-10-31T11:51:54.797Z,95022.28
2022-10-31T11:54:34.135Z,95039.63
2022-10-31T11:57:01.116Z,95030.69
2022-10-31T11:59:31.253Z,95039.44
2022-10-31T12:02:02.660Z,95040.63
2022-10-31T12:04:36.171Z,95028.09
2022-10-31T12:07:04.067Z,95041.47
2022-10-31T12:09:35.593Z,95022.28
2022-10-31T12:12:23.671Z,95032.59
2022-10-31T12:15:15.532Z,95028.78
2022-10-31T12:17:54.228Z,95021.06
2022-10-31T12:20:45.605Z,95040.06
2022-10-31T12:23:19.306Z,95012.41
2022-10-31T12:26:06.919Z,95021.47
2022-10-31T12:28:48.828Z,95031.78
2022-10-31T12:32:02.878Z,95022.06
2022-10-31T12:35:01.173Z,95006.69
2022-10-31T12:37:39.927Z,94996.41
2022-10-31T12:40:40.365Z,94998.38
2022-10-31T12:43:45.354Z,94990.34
2022-10-31T12:46:54.669Z,94990.31
2022-10-31T12:49:39.537Z,94975.31
2022-10-31T12:52:23.771Z,94991.44
2022-10-31T12:55:01.761Z,94962.09
2022-10-31T12:57:40.908Z,94943.25
2022-10-31T13:00:19.337Z,94951.47
2022-10-31T13:03:20.193Z,94941.84
2022-10-31T13:05:55.793Z,94941.38
2022-10-31T13:09:03.525Z,94938.53
2022-10-31T13:11:46.661Z,94923.94
2022-10-31T13:14:30.936Z,94936.25
2022-10-31T13:16:59.429Z,94910.34
2022-10-31T13:19:33.192Z,94926.19
2022-10-31T13:22:13.564Z,94923.13
2022-10-31T13:25:03.417Z,94913.72
2022-10-31T13:27:43.472Z,94900.19
2022-10-31T13:30:19.905Z,94921.81
2022-10-31T13:33:10.796Z,94899.06
2022-10-31T13:35:54.508Z,94900.44
2022-10-31T13:38:31.971Z,94893.50
2022-10-31T13:41:14.889Z,94901.97
2022-10-31T13:44:01.903Z,94884.25
2022-10-31T13:46:37.014Z,94881.34
2022-10-31T13:49:05.864Z,94886.97
2022-10-31T13:51:36.151Z,94873.66
2022-10-31T13:54:22.727Z,94875.03
2022-10-31T13:56:52.495Z,94863.19
2022-10-31T13:59:25.108Z,94857.63
2022-10-31T14:01:56.201Z,94858.06
2022-10-31T14:04:29.336Z,94849.47
2022-10-31T14:06:58.170Z,94851.22
2022-10-31T14:09:30.000Z,94843.94
2022-10-31T14:11:59.904Z,94845.97
2022-10-31T14:14:34.265Z,94862.22
2022-10-31T14:17:02.219Z,94855.38
2022-10-31T14:19:29.080Z,94858.63
2022-10-31T14:21:56.064Z,94843.66
2022-10-31T14:24:25.509Z,94836.63
2022-10-31T14:27:05.252Z,94850.34
2022-10-31T14:29:35.024Z,94836.56
2022-10-31T14:32:15.464Z,94814.09
2022-10-31T14:34:42.841Z,94832.22
2022-10-31T14:37:40.058Z,94833.00
2022-10-31T14:40:19.228Z,94828.22
2022-10-31T14:43:01.614Z,94822.91
2022-10-31T14:45:37.979Z,94805.88
2022-10-31T14:48:44.134Z,94793.97
2022-10-31T14:51:19.844Z,94755.16
2022-10-31T14:53:55.288Z,94709.00
2022-10-31T14:56:28.673Z,94701.00
2022-10-31T14:59:00.485Z,94726.88
2022-10-31T15:01:40.699Z,94741.41
2022-10-31T15:04:25.193Z,94728.84
2022-10-31T15:07:25.578Z,94721.66
2022-10-31T15:10:05.777Z,94748.56
2022-10-31T15:12:35.793Z,94757.97
2022-10-31T15:15:20.913Z,94740.28
2022-10-31T15:17:55.339Z,94718.88
2022-10-31T15:20:27.241Z,94729.69
2022-10-31T15:22:57.793Z,94741.38
2022-10-31T15:25:27.225Z,94749.97
2022-10-31T15:27:54.198Z,94715.38
2022-10-31T15:30:27.016Z,94764.41
2022-10-31T15:32:58.622Z,94713.66
2022-10-31T15:35:29.315Z,94720.97
2022-10-31T15:37:58.465Z,94692.56
2022-10-31T15:40:27.392Z,94714.38
2022-10-31T15:43:07.844Z,94706.78
2022-10-31T15:45:36.477Z,94705.69
2022-10-31T15:48:17.825Z,94690.63
2022-10-31T15:50:56.661Z,94692.47
2022-10-31T15:53:26.525Z,94679.78
2022-10-31T15:55:59.744Z,94692.44
2022-10-31T15:58:28.109Z,94713.44
2022-10-31T16:01:00.244Z,94727.28
2022-10-31T16:03:30.438Z,94717.56
2022-10-31T16:06:00.104Z,94712.19
2022-10-31T16:08:29.781Z,94722.28
2022-10-31T16:11:08.567Z,94674.34
2022-10-31T16:13:39.302Z,94697.66
2022-10-31T16:16:35.557Z,94716.44
2022-10-31T16:19:06.362Z,94698.03
2022-10-31T16:21:36.627Z,94715.75
2022-10-31T16:24:32.152Z,94736.91
2022-10-31T16:27:07.368Z,94706.84
2022-10-31T16:29:43.103Z,94696.53
2022-10-31T16:32:28.432Z,94686.03
2022-10-31T16:35:12.980Z,94696.06
2022-10-31T16:37:41.441Z,94682.91
2022-10-31T16:40:11.239Z,94689.53
2022-10-31T16:42:38.014Z,94721.09
2022-10-31T16:45:07.481Z,94730.78
2022-10-31T16:47:34.185Z,94723.44
2022-10-31T16:50:02.216Z,94721.44
2022-10-31T16:52:38.075Z,94759.88
2022-10-31T16:55:06.805Z,94735.41
2022-10-31T16:57:33.857Z,94737.06
2022-10-31T17:00:00.684Z,94703.59
2022-10-31T17:02:27.553Z,94697.41
2022-10-31T17:04:56.829Z,94751.03
2022-10-31T17:07:23.912Z,94733.56
2022-10-31T17:09:51.449Z,94746.03
2022-10-31T17:12:23.182Z,94747.25
2022-10-31T17:14:52.216Z,94722.75
2022-10-31T17:17:19.275Z,94749.59
2022-10-31T17:19:45.994Z,94757.31
2022-10-31T17:22:15.288Z,94762.00
2022-10-31T17:24:42.024Z,94717.44
2022-10-31T17:27:08.715Z,94740.25
2022-10-31T17:29:36.365Z,94730.28
2022-10-31T17:32:04.210Z,94707.06
2022-10-31T17:34:31.181Z,94741.78
2022-10-31T17:36:57.927Z,94787.16
2022-10-31T17:39:24.621Z,94775.31
2022-10-31T17:41:52.716Z,94797.50
2022-10-31T17:44:20.531Z,94808.53
2022-10-31T17:46:47.918Z,94809.88
2022-10-31T17:49:14.777Z,94806.03
2022-10-31T17:51:41.634Z,94797.53
2022-10-31T17:54:09.270Z,94732.56
2022-10-31T17:56:36.413Z,94769.72
2022-10-31T17:59:03.556Z,94785.44
2022-10-31T18:01:30.460Z,94765.16
2022-10-31T18:03:57.396Z,94785.03
2022-10-31T18:06:24.214Z,94780.47
2022-10-31T18:08:52.257Z,94776.06
2022-10-31T18:11:22.817Z,94749.09
2022-10-31T18:13:55.457Z,94760.25
2022-10-31T18:16:23.580Z,94763.53
2022-10-31T18:18:53.332Z,94779.19
2022-10-31T18:21:22.206Z,94783.72
2022-10-31T18:23:53.303Z,94793.56
2022-10-31T18:26:19.953Z,94797.72
2022-10-31T18:28:46.672Z,94767.88
2022-10-31T18:31:13.525Z,94783.06
2022-10-31T18:33:42.456Z,94779.78
2022-10-31T18:36:11.136Z,94771.63
2022-10-31T18:38:40.469Z,94732.78
2022-10-31T18:41:09.377Z,94739.00
2022-10-31T18:43:36.983Z,94773.75
2022-10-31T18:46:09.670Z,94760.91
2022-10-31T18:48:38.265Z,94740.00
2022-10-31T18:51:07.792Z,94765.91
2022-10-31T18:53:35.474Z,94705.44
2022-10-31T18:56:07.251Z,94682.69
2022-10-31T18:58:33.939Z,94692.06
2022-10-31T19:01:09.771Z,94691.28
2022-10-31T19:03:38.388Z,94740.56
2022-10-31T19:06:05.633Z,94752.47
2022-10-31T19:08:32.703Z,94782.34
2022-10-31T19:11:13.919Z,94730.75
2022-10-31T19:13:42.715Z,94745.44
2022-10-31T19:16:14.138Z,94758.06
2022-10-31T19:18:42.440Z,94776.06
2022-10-31T19:21:11.856Z,94736.78
2022-10-31T19:23:39.357Z,94761.31
2022-10-31T19:26:06.119Z,94745.38
2022-10-31T19:28:36.727Z,94765.56
2022-10-31T19:31:04.924Z,94776.00
2022-10-31T19:33:35.111Z,94767.03
2022-10-31T19:36:08.446Z,94770.47
2022-10-31T19:38:37.619Z,94743.50
2022-10-31T19:41:07.608Z,94763.78
2022-10-31T19:43:34.832Z,94760.44
2022-10-31T19:46:03.796Z,94776.38
2022-10-31T19:48:30.938Z,94773.53
2022-10-31T19:51:05.396Z,94771.41
2022-10-31T19:53:32.773Z,94764.84
2022-10-31T19:56:00.292Z,94765.00
2022-10-31T19:58:27.861Z,94762.47
2022-10-31T20:00:55.019Z,94765.41
2022-10-31T20:03:22.984Z,94768.69
2022-10-31T20:05:50.729Z,94781.84
2022-10-31T20:08:20.236Z,94769.84
2022-10-31T20:11:12.982Z,94752.44
2022-10-31T20:13:41.027Z,94772.28
2022-10-31T20:16:10.524Z,94788.06
2022-10-31T20:18:39.112Z,94772.25
2022-10-31T20:21:14.668Z,94765.03
2022-10-31T20:23:42.079Z,94760.03
2022-10-31T20:26:12.790Z,94785.56
2022-10-31T20:28:43.367Z,94784.22
2022-10-31T20:31:14.373Z,94772.47
2022-10-31T20:33:41.438Z,94769.09
2022-10-31T20:36:09.583Z,94776.28
2022-10-31T20:38:41.408Z,94749.09
2022-10-31T20:41:10.533Z,94737.94
2022-10-31T20:43:39.374Z,94751.88
2022-10-31T20:46:14.643Z,94744.97
2022-10-31T20:48:41.819Z,94768.31
2022-10-31T20:53:51.466Z,94724.34
2022-10-31T20:56:20.527Z,94731.34
2022-10-31T20:58:47.806Z,94730.94
2022-10-31T21:01:16.204Z,94759.94
2022-10-31T21:03:43.776Z,94759.59
2022-10-31T21:06:11.581Z,94779.28
2022-10-31T21:08:40.220Z,94763.03
2022-10-31T21:11:18.832Z,94768.06
2022-10-31T21:13:47.445Z,94768.47
2022-10-31T21:16:23.511Z,94782.44
2022-10-31T21:18:51.247Z,94772.84
2022-10-31T21:21:30.772Z,94761.25
2022-10-31T21:24:05.814Z,94760.22
2022-10-31T21:26:38.716Z,94766.31
2022-10-31T21:29:06.799Z,94761.53
2022-10-31T21:31:35.193Z,94763.28
2022-10-31T21:34:01.934Z,94776.94
2022-10-31T21:36:28.636Z,94762.47
2022-10-31T21:38:56.052Z,94772.91
2022-10-31T21:41:25.165Z,94750.75
2022-10-31T21:43:55.004Z,94723.22
2022-10-31T21:46:25.367Z,94764.81
2022-10-31T21:48:52.580Z,94749.41
2022-10-31T21:51:29.460Z,94759.31
2022-10-31T21:54:15.159Z,94785.31
2022-10-31T21:56:41.939Z,94760.84
2022-10-31T21:59:09.972Z,94737.41
2022-10-31T22:01:37.278Z,94767.09
2022-10-31T22:04:04.918Z,94749.56
2022-10-31T22:06:31.796Z,94761.47
2022-10-31T22:09:00.711Z,94753.38
2022-10-31T22:11:28.566Z,94744.28
2022-10-31T22:13:58.340Z,94760.38
2022-10-31T22:16:26.584Z,94750.06
2022-10-31T22:18:56.425Z,94751.88
2022-10-31T22:21:26.250Z,94763.28
2022-10-31T22:24:01.799Z,94780.34
2022-10-31T22:26:32.656Z,94769.34
2022-10-31T22:29:00.728Z,94771.75
2022-10-31T22:31:28.711Z,94768.19
2022-10-31T22:33:56.208Z,94764.00
2022-10-31T22:36:27.735Z,94747.66
2022-10-31T22:38:55.923Z,94761.41
2022-10-31T22:41:34.032Z,94753.53
2022-10-31T22:44:00.842Z,94753.88
2022-10-31T22:46:30.127Z,94759.69
2022-10-31T22:48:59.957Z,94756.63
2022-10-31T22:51:34.627Z,94743.44
2022-10-31T22:54:01.486Z,94751.13
2022-10-31T22:56:31.906Z,94741.88
2022-10-31T22:58:59.310Z,94739.88
2022-10-31T23:01:29.627Z,94735.31
2022-10-31T23:03:56.514Z,94707.50
2022-10-31T23:06:25.800Z,94745.34
2022-10-31T23:08:54.772Z,94755.53
2022-10-31T23:11:33.782Z,94715.53
2022-10-31T23:14:10.167Z,94698.06
2022-10-31T23:16:41.169Z,94691.75
2022-10-31T23:19:18.190Z,94699.81
2022-10-31T23:21:55.880Z,94699.16
2022-10-31T23:24:25.772Z,94707.47
2022-10-31T23:27:10.031Z,94688.75
2022-10-31T23:29:46.304Z,94677.88
2022-10-31T23:32:15.039Z,94668.22
2022-10-31T23:34:42.499Z,94659.16
2022-10-31T23:37:09.990Z,94643.88
2022-10-31T23:39:37.156Z,94640.72
2022-10-31T23:42:04.100Z,94651.19
2022-10-31T23:44:30.808Z,94667.28
2022-10-31T23:46:57.691Z,94695.94
2022-10-31T23:49:25.482Z,94705.53
2022-10-31T23:51:52.533Z,94645.44
2022-10-31T23:54:19.227Z,94646.50
2022-10-31T23:56:45.925Z,94672.38
2022-10-31T23:59:12.592Z,94669.09
